sensor_id;sensor_type;location;lat;lon;timestamp;pressure;altitude;pressure_sealevel;temperature;humidity
62978;BME280;49073;42.352;23.808;2022-12-07T00:01:34;94758.81;;;4.70;100.00
62978;BME280;49073;42.352;23.808;2022-12-07T00:04:35;94752.16;;;4.72;100.00
62978;BME280;49073;42.352;23.808;2022-12-07T00:07:35;94771.22;;;4.69;100.00
62978;BME280;49073;42.352;23.808;2022-12-07T00:10:36;94761.63;;;4.64;100.00
62978;BME280;49073;42.352;23.808;2022-12-07T00:13:37;94757.09;;;4.65;100.00
62978;BME280;49073;42.352;23.808;2022-12-07T00:16:38;94761.00;;;4.68;100.00
62978;BME280;49073;42.352;23.808;2022-12-07T00:19:39;94756.34;;;4.56;100.00
62978;BME280;49073;42.352;23.808;2022-12-07T00:22:40;94752.78;;;4.51;100.00
62978;BME280;49073;42.352;23.808;2022-12-07T00:25:41;94758.06;;;4.51;100.00
62978;BME280;49073;42.352;23.808;2022-12-07T00:28:46;94764.56;;;4.63;100.00
62978;BME280;49073;42.352;23.808;2022-12-07T00:31:47;94761.78;;;4.59;100.00
62978;BME280;49073;42.352;23.808;2022-12-07T00:34:47;94761.00;;;4.59;100.00
62978;BME280;49073;42.352;23.808;2022-12-07T00:37:48;94761.03;;;4.50;100.00
62978;BME280;49073;42.352;23.808;2022-12-07T00:41:00;94755.56;;;4.46;100.00
62978;BME280;49073;42.352;23.808;2022-12-07T00:44:00;94753.72;;;4.47;100.00
62978;BME280;49073;42.352;23.808;2022-12-07T00:47:01;94751.38;;;4.36;100.00
62978;BME280;49073;42.352;23.808;2022-12-07T00:50:05;94753.72;;;4.38;100.00
62978;BME280;49073;42.352;23.808;2022-12-07T00:53:06;94752.03;;;4.51;100.00
62978;BME280;49073;42.352;23.808;2022-12-07T00:56:13;94758.34;;;4.59;100.00
62978;BME280;49073;42.352;23.808;2022-12-07T00:59:13;94744.72;;;4.48;100.00
62978;BME280;49073;42.352;23.808;2022-12-07T01:02:15;94740.81;;;4.63;100.00
62978;BME280;49073;42.352;23.808;2022-12-07T01:05:15;94731.34;;;4.62;100.00
62978;BME280;49073;42.352;23.808;2022-12-07T01:08:16;94736.63;;;4.71;100.00
62978;BME280;49073;42.352;23.808;2022-12-07T01:11:19;94735.09;;;4.52;100.00
62978;BME280;49073;42.352;23.808;2022-12-07T01:14:20;94734.16;;;4.48;100.00
62978;BME280;49073;42.352;23.808;2022-12-07T01:17:20;94734.63;;;4.50;100.00
62978;BME280;49073;42.352;23.808;2022-12-07T01:20:21;94728.72;;;4.35;100.00
62978;BME280;49073;42.352;23.808;2022-12-07T01:23:22;94726.88;;;4.36;100.00
62978;BME280;49073;42.352;23.808;2022-12-07T01:26:24;94721.75;;;4.31;100.00
62978;BME280;49073;42.352;23.808;2022-12-07T01:29:25;94709.50;;;4.26;100.00
62978;BME280;49073;42.352;23.808;2022-12-07T01:32:25;94709.97;;;4.19;100.00
62978;BME280;49073;42.352;23.808;2022-12-07T01:35:26;94712.28;;;4.39;100.00
62978;BME280;49073;42.352;23.808;2022-12-07T01:38:26;94721.75;;;4.48;100.00
62978;BME280;49073;42.352;23.808;2022-12-07T01:41:30;94720.81;;;4.44;100.00
62978;BME280;49073;42.352;23.808;2022-12-07T01:44:31;94719.09;;;4.40;100.00
62978;BME280;49073;42.352;23.808;2022-12-07T01:47:33;94711.19;;;4.48;100.00
62978;BME280;49073;42.352;23.808;2022-12-07T01:50:33;94720.94;;;4.57;100.00
62978;BME280;49073;42.352;23.808;2022-12-07T01:53:37;94711.50;;;4.47;100.00
62978;BME280;49073;42.352;23.808;2022-12-07T01:56:39;94712.09;;;4.53;100.00
62978;BME280;49073;42.352;23.808;2022-12-07T01:59:43;94711.66;;;4.59;100.00
62978;BME280;49073;42.352;23.808;2022-12-07T02:02:53;94713.69;;;4.45;100.00
62978;BME280;49073;42.352;23.808;2022-12-07T02:05:54;94712.59;;;4.46;100.00
62978;BME280;49073;42.352;23.808;2022-12-07T02:08:55;94701.13;;;4.24;100.00
62978;BME280;49073;42.352;23.808;2022-12-07T02:11:56;94705.47;;;4.20;100.00
62978;BME280;49073;42.352;23.808;2022-12-07T02:14:57;94708.59;;;4.13;100.00
62978;BME280;49073;42.352;23.808;2022-12-07T02:29:35;94702.66;;;4.25;100.00
62978;BME280;49073;42.352;23.808;2022-12-07T02:32:23;94699.09;;;4.12;100.00
62978;BME280;49073;42.352;23.808;2022-12-07T02:35:48;94693.06;;;4.12;100.00
62978;BME280;49073;42.352;23.808;2022-12-07T02:39:00;94692.28;;;4.20;100.00
62978;BME280;49073;42.352;23.808;2022-12-07T02:42:12;94691.97;;;4.21;100.00
62978;BME280;49073;42.352;23.808;2022-12-07T02:45:17;94686.53;;;4.27;100.00
62978;BME280;49073;42.352;23.808;2022-12-07T02:48:19;94687.31;;;4.27;100.00
62978;BME280;49073;42.352;23.808;2022-12-07T02:51:22;94679.84;;;4.29;100.00
62978;BME280;49073;42.352;23.808;2022-12-07T02:54:22;94673.66;;;4.34;100.00
62978;BME280;49073;42.352;23.808;2022-12-07T02:57:36;94679.06;;;4.46;100.00
62978;BME280;49073;42.352;23.808;2022-12-07T03:00:54;94676.88;;;4.40;100.00
62978;BME280;49073;42.352;23.808;2022-12-07T03:04:33;94669.94;;;4.35;100.00
62978;BME280;49073;42.352;23.808;2022-12-07T03:11:06;94680.19;;;4.28;100.00
62978;BME280;49073;42.352;23.808;2022-12-07T03:14:15;94680.66;;;4.30;100.00
62978;BME280;49073;42.352;23.808;2022-12-07T03:17:23;94683.75;;;4.32;100.00
62978;BME280;49073;42.352;23.808;2022-12-07T03:20:26;94679.38;;;4.36;100.00
62978;BME280;49073;42.352;23.808;2022-12-07T03:23:30;94683.25;;;4.39;100.00
62978;BME280;49073;42.352;23.808;2022-12-07T03:26:40;94675.84;;;4.32;100.00
62978;BME280;49073;42.352;23.808;2022-12-07T03:30:08;94675.84;;;4.32;100.00
62978;BME280;49073;42.352;23.808;2022-12-07T03:33:19;94670.69;;;4.35;100.00
62978;BME280;49073;42.352;23.808;2022-12-07T03:36:25;94666.03;;;4.41;100.00
62978;BME280;49073;42.352;23.808;2022-12-07T03:39:50;94664.94;;;4.42;100.00
62978;BME280;49073;42.352;23.808;2022-12-07T03:42:55;94655.66;;;4.36;100.00
62978;BME280;49073;42.352;23.808;2022-12-07T03:46:02;94662.63;;;4.32;100.00
62978;BME280;49073;42.352;23.808;2022-12-07T03:49:37;94663.72;;;4.31;100.00
62978;BME280;49073;42.352;23.808;2022-12-07T03:52:44;94659.38;;;4.35;100.00
62978;BME280;49073;42.352;23.808;2022-12-07T03:55:46;94659.84;;;4.37;100.00
62978;BME280;49073;42.352;23.808;2022-12-07T03:58:49;94662.16;;;4.39;100.00
62978;BME280;49073;42.352;23.808;2022-12-07T04:01:57;94662.47;;;4.37;100.00
62978;BME280;49073;42.352;23.808;2022-12-07T04:04:57;94667.13;;;4.40;100.00
62978;BME280;49073;42.352;23.808;2022-12-07T04:07:58;94660.75;;;4.41;100.00
62978;BME280;49073;42.352;23.808;2022-12-07T04:10:58;94666.97;;;4.36;100.00
62978;BME280;49073;42.352;23.808;2022-12-07T04:13:59;94663.72;;;4.31;100.00
62978;BME280;49073;42.352;23.808;2022-12-07T04:17:18;94658.44;;;4.22;100.00
62978;BME280;49073;42.352;23.808;2022-12-07T04:20:19;94663.88;;;4.17;100.00
62978;BME280;49073;42.352;23.808;2022-12-07T04:23:19;94655.97;;;4.26;100.00
62978;BME280;49073;42.352;23.808;2022-12-07T04:26:20;94652.41;;;4.21;100.00
62978;BME280;49073;42.352;23.808;2022-12-07T04:29:20;94655.53;;;4.24;100.00
62978;BME280;49073;42.352;23.808;2022-12-07T04:32:22;94652.09;;;4.23;100.00
62978;BME280;49073;42.352;23.808;2022-12-07T04:35:23;94649.00;;;4.21;100.00
62978;BME280;49073;42.352;23.808;2022-12-07T04:38:23;94652.25;;;4.27;100.00
62978;BME280;49073;42.352;23.808;2022-12-07T04:41:24;94652.88;;;4.24;100.00
62978;BME280;49073;42.352;23.808;2022-12-07T04:44:29;94661.88;;;4.22;100.00
62978;BME280;49073;42.352;23.808;2022-12-07T04:47:30;94674.16;;;4.18;100.00
62978;BME280;49073;42.352;23.808;2022-12-07T04:50:30;94675.66;;;4.28;100.00
62978;BME280;49073;42.352;23.808;2022-12-07T04:53:31;94668.72;;;4.24;100.00
62978;BME280;49073;42.352;23.808;2022-12-07T04:56:32;94670.59;;;4.14;100.00
62978;BME280;49073;42.352;23.808;2022-12-07T04:59:32;94665.91;;;4.11;100.00
62978;BME280;49073;42.352;23.808;2022-12-07T05:02:33;94682.97;;;4.22;100.00
62978;BME280;49073;42.352;23.808;2022-12-07T05:05:34;94679.69;;;4.34;100.00
62978;BME280;49073;42.352;23.808;2022-12-07T05:08:35;94672.44;;;4.22;100.00
62978;BME280;49073;42.352;23.808;2022-12-07T05:11:35;94679.09;;;4.20;100.00
62978;BME280;49073;42.352;23.808;2022-12-07T05:14:39;94682.63;;;4.42;100.00
62978;BME280;49073;42.352;23.808;2022-12-07T05:17:40;94677.06;;;4.34;100.00
62978;BME280;49073;42.352;23.808;2022-12-07T05:20:42;94672.72;;;4.30;100.00
62978;BME280;49073;42.352;23.808;2022-12-07T05:23:42;94674.56;;;4.38;100.00
62978;BME280;49073;42.352;23.808;2022-12-07T05:26:44;94671.00;;;4.25;100.00
62978;BME280;49073;42.352;23.808;2022-12-07T05:29:45;94661.56;;;4.24;100.00
62978;BME280;49073;42.352;23.808;2022-12-07T05:32:45;94650.69;;;4.26;100.00
62978;BME280;49073;42.352;23.808;2022-12-07T05:35:46;94656.75;;;4.26;100.00
62978;BME280;49073;42.352;23.808;2022-12-07T05:38:47;94663.88;;;4.26;100.00
62978;BME280;49073;42.352;23.808;2022-12-07T05:41:48;94660.59;;;4.37;100.00
62978;BME280;49073;42.352;23.808;2022-12-07T05:45:08;94665.28;;;4.32;100.00
62978;BME280;49073;42.352;23.808;2022-12-07T05:48:09;94669.31;;;4.38;100.00
62978;BME280;49073;42.352;23.808;2022-12-07T05:51:10;94672.09;;;4.33;100.00
62978;BME280;49073;42.352;23.808;2022-12-07T05:54:10;94660.75;;;4.32;100.00
62978;BME280;49073;42.352;23.808;2022-12-07T05:57:11;94657.66;;;4.30;100.00
62978;BME280;49073;42.352;23.808;2022-12-07T06:00:12;94655.03;;;4.39;100.00
62978;BME280;49073;42.352;23.808;2022-12-07T06:03:12;94658.13;;;4.32;100.00
62978;BME280;49073;42.352;23.808;2022-12-07T06:06:13;94660.00;;;4.32;100.00
62978;BME280;49073;42.352;23.808;2022-12-07T06:09:14;94657.03;;;4.33;99.90
62978;BME280;49073;42.352;23.808;2022-12-07T06:12:14;94661.09;;;4.22;100.00
62978;BME280;49073;42.352;23.808;2022-12-07T06:15:36;94657.38;;;4.23;100.00
62978;BME280;49073;42.352;23.808;2022-12-07T06:18:37;94658.00;;;4.29;100.00
62978;BME280;49073;42.352;23.808;2022-12-07T06:21:38;94659.22;;;4.31;99.94
62978;BME280;49073;42.352;23.808;2022-12-07T06:24:39;94658.59;;;4.34;100.00
62978;BME280;49073;42.352;23.808;2022-12-07T06:27:40;94662.63;;;4.32;99.55
62978;BME280;49073;42.352;23.808;2022-12-07T06:30:40;94655.97;;;4.17;99.97
62978;BME280;49073;42.352;23.808;2022-12-07T06:33:42;94661.13;;;4.13;100.00
62978;BME280;49073;42.352;23.808;2022-12-07T06:36:42;94665.28;;;4.23;100.00
62978;BME280;49073;42.352;23.808;2022-12-07T06:39:43;94659.03;;;4.36;100.00
62978;BME280;49073;42.352;23.808;2022-12-07T06:42:43;94659.53;;;4.21;100.00
62978;BME280;49073;42.352;23.808;2022-12-07T06:45:44;94665.13;;;4.37;100.00
62978;BME280;49073;42.352;23.808;2022-12-07T06:48:44;94669.47;;;4.33;100.00
62978;BME280;49073;42.352;23.808;2022-12-07T06:51:45;94677.22;;;4.38;100.00
62978;BME280;49073;42.352;23.808;2022-12-07T06:54:45;94671.16;;;4.37;100.00
62978;BME280;49073;42.352;23.808;2022-12-07T06:57:46;94673.19;;;4.32;99.92
62978;BME280;49073;42.352;23.808;2022-12-07T07:00:48;94678.31;;;4.37;99.95
62978;BME280;49073;42.352;23.808;2022-12-07T07:03:49;94677.38;;;4.33;99.85
62978;BME280;49073;42.352;23.808;2022-12-07T07:06:50;94676.28;;;4.43;99.35
62978;BME280;49073;42.352;23.808;2022-12-07T07:09:50;94685.47;;;4.28;100.00
62978;BME280;49073;42.352;23.808;2022-12-07T07:12:51;94675.66;;;4.37;100.00
62978;BME280;49073;42.352;23.808;2022-12-07T07:15:51;94681.41;;;4.30;100.00
62978;BME280;49073;42.352;23.808;2022-12-07T07:18:52;94676.94;;;4.13;100.00
62978;BME280;49073;42.352;23.808;2022-12-07T07:21:52;94682.34;;;4.26;100.00
62978;BME280;49073;42.352;23.808;2022-12-07T07:24:53;94681.09;;;4.32;100.00
62978;BME280;49073;42.352;23.808;2022-12-07T07:27:53;94677.72;;;4.22;100.00
62978;BME280;49073;42.352;23.808;2022-12-07T07:30:54;94676.59;;;4.06;100.00
62978;BME280;49073;42.352;23.808;2022-12-07T07:33:55;94688.41;;;3.91;100.00
62978;BME280;49073;42.352;23.808;2022-12-07T07:36:55;94689.66;;;4.02;100.00
62978;BME280;49073;42.352;23.808;2022-12-07T07:39:56;94688.88;;;3.93;100.00
62978;BME280;49073;42.352;23.808;2022-12-07T07:42:57;94682.19;;;3.78;100.00
62978;BME280;49073;42.352;23.808;2022-12-07T07:45:58;94685.47;;;4.01;100.00
62978;BME280;49073;42.352;23.808;2022-12-07T07:48:58;94680.97;;;4.11;100.00
62978;BME280;49073;42.352;23.808;2022-12-07T07:51:59;94684.53;;;3.97;100.00
62978;BME280;49073;42.352;23.808;2022-12-07T07:54:59;94688.56;;;3.95;100.00
62978;BME280;49073;42.352;23.808;2022-12-07T07:58:00;94684.06;;;3.95;100.00
62978;BME280;49073;42.352;23.808;2022-12-07T08:01:05;94683.91;;;3.91;100.00
62978;BME280;49073;42.352;23.808;2022-12-07T08:04:06;94677.69;;;3.87;100.00
62978;BME280;49073;42.352;23.808;2022-12-07T08:07:07;94682.66;;;3.98;100.00
62978;BME280;49073;42.352;23.808;2022-12-07T08:10:11;94686.06;;;4.16;100.00
62978;BME280;49073;42.352;23.808;2022-12-07T08:13:11;94688.72;;;4.07;100.00
62978;BME280;49073;42.352;23.808;2022-12-07T08:16:13;94676.31;;;4.07;100.00
62978;BME280;49073;42.352;23.808;2022-12-07T08:19:15;94679.41;;;4.10;100.00
62978;BME280;49073;42.352;23.808;2022-12-07T08:22:15;94669.16;;;4.08;100.00
62978;BME280;49073;42.352;23.808;2022-12-07T08:25:16;94668.53;;;4.20;100.00
62978;BME280;49073;42.352;23.808;2022-12-07T08:28:16;94676.75;;;4.27;100.00
62978;BME280;49073;42.352;23.808;2022-12-07T08:31:18;94682.31;;;4.34;100.00
62978;BME280;49073;42.352;23.808;2022-12-07T08:34:20;94680.78;;;4.42;100.00
62978;BME280;49073;42.352;23.808;2022-12-07T08:37:20;94672.06;;;4.42;100.00
62978;BME280;49073;42.352;23.808;2022-12-07T08:40:21;94675.22;;;4.26;100.00
62978;BME280;49073;42.352;23.808;2022-12-07T08:43:22;94674.75;;;4.33;100.00
62978;BME280;49073;42.352;23.808;2022-12-07T08:46:31;94673.78;;;4.46;100.00
62978;BME280;49073;42.352;23.808;2022-12-07T08:49:39;94671.25;;;4.59;100.00
62978;BME280;49073;42.352;23.808;2022-12-07T08:52:41;94668.00;;;4.62;100.00
62978;BME280;49073;42.352;23.808;2022-12-07T08:55:44;94666.94;;;4.54;100.00
62978;BME280;49073;42.352;23.808;2022-12-07T08:58:45;94664.91;;;4.60;100.00
62978;BME280;49073;42.352;23.808;2022-12-07T09:01:46;94667.72;;;4.55;100.00
62978;BME280;49073;42.352;23.808;2022-12-07T09:04:46;94670.97;;;4.51;100.00
62978;BME280;49073;42.352;23.808;2022-12-07T09:07:50;94662.88;;;4.57;100.00
62978;BME280;49073;42.352;23.808;2022-12-07T09:10:51;94661.66;;;4.54;100.00
62978;BME280;49073;42.352;23.808;2022-12-07T09:13:52;94659.97;;;4.49;100.00
62978;BME280;49073;42.352;23.808;2022-12-07T09:16:52;94658.75;;;4.47;100.00
62978;BME280;49073;42.352;23.808;2022-12-07T09:19:53;94650.84;;;4.38;100.00
62978;BME280;49073;42.352;23.808;2022-12-07T09:22:53;94653.00;;;4.36;100.00
62978;BME280;49073;42.352;23.808;2022-12-07T09:25:54;94653.13;;;4.57;100.00
62978;BME280;49073;42.352;23.808;2022-12-07T09:28:54;94654.81;;;4.62;100.00
62978;BME280;49073;42.352;23.808;2022-12-07T09:31:55;94643.63;;;4.65;100.00
62978;BME280;49073;42.352;23.808;2022-12-07T09:34:56;94649.78;;;4.78;100.00
62978;BME280;49073;42.352;23.808;2022-12-07T09:37:56;94645.13;;;4.84;100.00
62978;BME280;49073;42.352;23.808;2022-12-07T09:40:57;94640.97;;;4.74;100.00
62978;BME280;49073;42.352;23.808;2022-12-07T09:44:20;94644.13;;;4.97;100.00
62978;BME280;49073;42.352;23.808;2022-12-07T09:47:22;94637.91;;;5.02;100.00
62978;BME280;49073;42.352;23.808;2022-12-07T09:50:27;94633.38;;;5.02;100.00
62978;BME280;49073;42.352;23.808;2022-12-07T09:53:30;94634.75;;;5.08;100.00
62978;BME280;49073;42.352;23.808;2022-12-07T09:56:33;94623.16;;;5.52;99.12
62978;BME280;49073;42.352;23.808;2022-12-07T09:59:34;94619.69;;;5.81;96.93
62978;BME280;49073;42.352;23.808;2022-12-07T10:02:36;94622.44;;;6.06;94.33
62978;BME280;49073;42.352;23.808;2022-12-07T10:05:44;94625.16;;;5.97;93.76
62978;BME280;49073;42.352;23.808;2022-12-07T10:08:45;94621.72;;;5.97;93.97
62978;BME280;49073;42.352;23.808;2022-12-07T10:11:59;94624.25;;;5.93;93.79
62978;BME280;49073;42.352;23.808;2022-12-07T10:15:03;94609.88;;;6.03;93.91
62978;BME280;49073;42.352;23.808;2022-12-07T10:18:17;94609.28;;;5.97;94.05
62978;BME280;49073;42.352;23.808;2022-12-07T10:21:24;94600.09;;;6.04;94.49
62978;BME280;49073;42.352;23.808;2022-12-07T10:24:25;94596.44;;;6.08;95.20
62978;BME280;49073;42.352;23.808;2022-12-07T10:27:32;94595.38;;;6.68;94.11
62978;BME280;49073;42.352;23.808;2022-12-07T10:30:33;94586.13;;;7.11;91.95
62978;BME280;49073;42.352;23.808;2022-12-07T10:34:03;94576.75;;;7.67;89.79
62978;BME280;49073;42.352;23.808;2022-12-07T10:40:31;94576.38;;;7.69;87.86
62978;BME280;49073;42.352;23.808;2022-12-07T10:43:34;94573.59;;;7.78;87.28
62978;BME280;49073;42.352;23.808;2022-12-07T10:46:49;94572.31;;;7.71;84.87
62978;BME280;49073;42.352;23.808;2022-12-07T11:03:32;94551.69;;;7.52;87.47
62978;BME280;49073;42.352;23.808;2022-12-07T11:06:39;94543.38;;;7.54;87.12
62978;BME280;49073;42.352;23.808;2022-12-07T11:16:36;94546.81;;;7.13;87.95
62978;BME280;49073;42.352;23.808;2022-12-07T11:26:56;94524.88;;;6.88;90.68
62978;BME280;49073;42.352;23.808;2022-12-07T11:33:29;94522.09;;;7.09;90.49
62978;BME280;49073;42.352;23.808;2022-12-07T11:36:41;94509.03;;;7.17;88.33
62978;BME280;49073;42.352;23.808;2022-12-07T11:39:51;94505.34;;;7.34;88.97
62978;BME280;49073;42.352;23.808;2022-12-07T11:43:22;94506.56;;;7.36;87.42
62978;BME280;49073;42.352;23.808;2022-12-07T11:46:28;94503.53;;;7.50;87.81
62978;BME280;49073;42.352;23.808;2022-12-07T11:49:43;94507.31;;;7.65;86.47
62978;BME280;49073;42.352;23.808;2022-12-07T11:53:17;94494.78;;;7.50;86.16
62978;BME280;49073;42.352;23.808;2022-12-07T11:56:15;94494.75;;;7.62;86.04
62978;BME280;49073;42.352;23.808;2022-12-07T11:59:33;94488.56;;;7.58;84.51
62978;BME280;49073;42.352;23.808;2022-12-07T12:02:59;94486.56;;;7.83;85.91
62978;BME280;49073;42.352;23.808;2022-12-07T12:06:02;94479.34;;;8.12;84.60
62978;BME280;49073;42.352;23.808;2022-12-07T12:09:26;94481.38;;;8.19;83.73
62978;BME280;49073;42.352;23.808;2022-12-07T12:15:59;94485.13;;;7.86;83.25
62978;BME280;49073;42.352;23.808;2022-12-07T12:19:29;94480.34;;;7.76;82.88
62978;BME280;49073;42.352;23.808;2022-12-07T12:22:37;94475.38;;;7.90;83.26
62978;BME280;49073;42.352;23.808;2022-12-07T12:28:52;94476.09;;;8.19;82.77
62978;BME280;49073;42.352;23.808;2022-12-07T12:32:12;94462.56;;;7.92;82.76
62978;BME280;49073;42.352;23.808;2022-12-07T12:35:30;94469.59;;;8.17;83.55
62978;BME280;49073;42.352;23.808;2022-12-07T12:38:33;94460.41;;;8.30;82.56
62978;BME280;49073;42.352;23.808;2022-12-07T12:45:25;94464.13;;;8.25;83.22
62978;BME280;49073;42.352;23.808;2022-12-07T12:48:35;94465.81;;;8.01;83.56
62978;BME280;49073;42.352;23.808;2022-12-07T12:51:38;94463.91;;;7.86;83.37
62978;BME280;49073;42.352;23.808;2022-12-07T13:01:39;94447.41;;;7.48;86.11
62978;BME280;49073;42.352;23.808;2022-12-07T13:08:01;94458.94;;;7.68;87.20
62978;BME280;49073;42.352;23.808;2022-12-07T13:11:31;94456.06;;;7.61;86.62
62978;BME280;49073;42.352;23.808;2022-12-07T13:15:00;94455.31;;;7.61;86.37
62978;BME280;49073;42.352;23.808;2022-12-07T13:18:03;94443.09;;;7.72;85.80
62978;BME280;49073;42.352;23.808;2022-12-07T13:24:10;94449.00;;;7.81;85.25
62978;BME280;49073;42.352;23.808;2022-12-07T13:27:12;94438.94;;;7.87;85.76
62978;BME280;49073;42.352;23.808;2022-12-07T13:30:15;94448.41;;;7.72;85.02
62978;BME280;49073;42.352;23.808;2022-12-07T13:33:17;94443.19;;;7.76;85.71
62978;BME280;49073;42.352;23.808;2022-12-07T13:36:27;94443.53;;;7.74;86.46
62978;BME280;49073;42.352;23.808;2022-12-07T13:39:34;94446.19;;;7.74;86.93
62978;BME280;49073;42.352;23.808;2022-12-07T13:42:35;94449.03;;;7.53;86.83
62978;BME280;49073;42.352;23.808;2022-12-07T13:45:35;94444.09;;;7.51;87.57
62978;BME280;49073;42.352;23.808;2022-12-07T13:48:49;94440.22;;;7.49;87.95
62978;BME280;49073;42.352;23.808;2022-12-07T13:51:51;94446.19;;;7.46;88.04
62978;BME280;49073;42.352;23.808;2022-12-07T13:54:58;94447.41;;;7.48;88.28
62978;BME280;49073;42.352;23.808;2022-12-07T13:57:59;94443.03;;;7.40;89.02
62978;BME280;49073;42.352;23.808;2022-12-07T14:01:05;94449.03;;;7.24;89.54
62978;BME280;49073;42.352;23.808;2022-12-07T14:04:34;94446.97;;;7.18;89.73
62978;BME280;49073;42.352;23.808;2022-12-07T14:07:54;94450.75;;;7.04;90.72
62978;BME280;49073;42.352;23.808;2022-12-07T14:10:56;94453.69;;;6.87;91.35
62978;BME280;49073;42.352;23.808;2022-12-07T14:14:01;94458.09;;;6.82;91.56
62978;BME280;49073;42.352;23.808;2022-12-07T14:17:15;94457.91;;;6.63;92.50
62978;BME280;49073;42.352;23.808;2022-12-07T14:20:34;94456.69;;;6.60;93.28
62978;BME280;49073;42.352;23.808;2022-12-07T14:23:38;94464.97;;;6.46;93.49
62978;BME280;49073;42.352;23.808;2022-12-07T14:26:39;94462.00;;;6.35;94.03
62978;BME280;49073;42.352;23.808;2022-12-07T14:29:40;94482.06;;;6.24;94.45
62978;BME280;49073;42.352;23.808;2022-12-07T14:32:41;94478.84;;;6.18;94.91
62978;BME280;49073;42.352;23.808;2022-12-07T14:35:43;94481.38;;;6.15;95.77
62978;BME280;49073;42.352;23.808;2022-12-07T14:38:43;94483.03;;;6.07;96.45
62978;BME280;49073;42.352;23.808;2022-12-07T14:41:44;94491.63;;;6.04;96.79
62978;BME280;49073;42.352;23.808;2022-12-07T14:44:53;94490.19;;;6.06;96.96
62978;BME280;49073;42.352;23.808;2022-12-07T14:47:54;94484.00;;;6.02;96.79
62978;BME280;49073;42.352;23.808;2022-12-07T14:50:54;94492.28;;;6.01;96.91
62978;BME280;49073;42.352;23.808;2022-12-07T14:53:55;94489.66;;;6.01;96.74
62978;BME280;49073;42.352;23.808;2022-12-07T14:56:56;94486.34;;;6.04;96.15
62978;BME280;49073;42.352;23.808;2022-12-07T14:59:56;94474.34;;;5.85;96.41
62978;BME280;49073;42.352;23.808;2022-12-07T15:02:58;94476.75;;;5.78;97.22
62978;BME280;49073;42.352;23.808;2022-12-07T15:05:59;94487.13;;;5.83;96.06
62978;BME280;49073;42.352;23.808;2022-12-07T15:08:59;94489.06;;;5.61;94.69
62978;BME280;49073;42.352;23.808;2022-12-07T15:12:00;94489.50;;;5.63;94.39
62978;BME280;49073;42.352;23.808;2022-12-07T15:15:01;94487.28;;;5.53;93.37
62978;BME280;49073;42.352;23.808;2022-12-07T15:18:02;94488.16;;;5.57;93.28
62978;BME280;49073;42.352;23.808;2022-12-07T15:21:03;94499.66;;;5.40;91.31
62978;BME280;49073;42.352;23.808;2022-12-07T15:24:04;94496.91;;;5.36;90.78
62978;BME280;49073;42.352;23.808;2022-12-07T15:27:05;94495.88;;;5.29;91.31
62978;BME280;49073;42.352;23.808;2022-12-07T15:30:06;94500.06;;;5.30;90.67
62978;BME280;49073;42.352;23.808;2022-12-07T15:33:06;94498.56;;;5.20;90.42
62978;BME280;49073;42.352;23.808;2022-12-07T15:36:07;94502.63;;;4.96;89.76
62978;BME280;49073;42.352;23.808;2022-12-07T15:39:09;94503.91;;;4.90;89.70
62978;BME280;49073;42.352;23.808;2022-12-07T15:42:10;94507.59;;;4.68;89.95
62978;BME280;49073;42.352;23.808;2022-12-07T15:45:11;94515.56;;;4.59;91.48
62978;BME280;49073;42.352;23.808;2022-12-07T15:48:13;94515.91;;;4.57;90.69
62978;BME280;49073;42.352;23.808;2022-12-07T15:51:14;94521.47;;;4.56;90.69
62978;BME280;49073;42.352;23.808;2022-12-07T15:54:22;94518.59;;;4.40;89.99
62978;BME280;49073;42.352;23.808;2022-12-07T15:57:23;94529.19;;;4.31;90.04
62978;BME280;49073;42.352;23.808;2022-12-07T16:00:24;94522.19;;;4.35;90.87
62978;BME280;49073;42.352;23.808;2022-12-07T16:03:24;94523.63;;;4.24;91.64
62978;BME280;49073;42.352;23.808;2022-12-07T16:06:25;94535.88;;;4.28;91.37
62978;BME280;49073;42.352;23.808;2022-12-07T16:09:25;94538.84;;;4.27;91.18
62978;BME280;49073;42.352;23.808;2022-12-07T16:12:26;94546.47;;;4.19;91.30
62978;BME280;49073;42.352;23.808;2022-12-07T16:15:27;94530.72;;;3.93;92.60
62978;BME280;49073;42.352;23.808;2022-12-07T16:18:28;94537.69;;;3.89;93.06
62978;BME280;49073;42.352;23.808;2022-12-07T16:21:28;94527.00;;;3.85;93.25
62978;BME280;49073;42.352;23.808;2022-12-07T16:24:28;94538.63;;;3.84;94.21
62978;BME280;49073;42.352;23.808;2022-12-07T16:27:29;94533.81;;;3.77;95.55
62978;BME280;49073;42.352;23.808;2022-12-07T16:30:29;94541.41;;;3.79;93.72
62978;BME280;49073;42.352;23.808;2022-12-07T16:33:30;94539.72;;;3.83;92.79
62978;BME280;49073;42.352;23.808;2022-12-07T16:36:31;94543.31;;;3.70;92.30
62978;BME280;49073;42.352;23.808;2022-12-07T16:39:32;94540.81;;;3.56;92.07
62978;BME280;49073;42.352;23.808;2022-12-07T16:42:34;94541.00;;;3.59;93.19
62978;BME280;49073;42.352;23.808;2022-12-07T16:45:36;94551.06;;;3.57;95.17
62978;BME280;49073;42.352;23.808;2022-12-07T16:48:38;94543.63;;;3.51;93.08
62978;BME280;49073;42.352;23.808;2022-12-07T16:51:39;94541.16;;;3.54;92.23
62978;BME280;49073;42.352;23.808;2022-12-07T16:54:39;94544.09;;;3.35;93.77
62978;BME280;49073;42.352;23.808;2022-12-07T16:57:40;94547.78;;;3.25;93.41
62978;BME280;49073;42.352;23.808;2022-12-07T17:00:42;94548.41;;;3.13;91.63
62978;BME280;49073;42.352;23.808;2022-12-07T17:03:44;94549.78;;;3.02;91.73
62978;BME280;49073;42.352;23.808;2022-12-07T17:06:45;94558.00;;;3.09;92.20
62978;BME280;49073;42.352;23.808;2022-12-07T17:09:45;94558.31;;;3.08;91.51
62978;BME280;49073;42.352;23.808;2022-12-07T17:12:46;94554.53;;;2.91;91.69
62978;BME280;49073;42.352;23.808;2022-12-07T17:16:04;94559.06;;;2.99;91.92
62978;BME280;49073;42.352;23.808;2022-12-07T17:19:06;94556.72;;;2.89;94.18
62978;BME280;49073;42.352;23.808;2022-12-07T17:22:07;94561.81;;;2.94;92.45